createdAt,value
2018-11-05T00:01:07.427Z,99455.61
2018-11-05T00:03:36.445Z,99447.11
2018-11-05T00:06:05.975Z,99454.22
2018-11-05T00:08:34.984Z,99452.80
2018-11-05T00:11:03.986Z,99437.70
2018-11-05T00:13:33.053Z,99454.39
2018-11-05T00:16:02.061Z,99449.30
2018-11-05T00:18:31.030Z,99442.73
2018-11-05T00:21:00.039Z,99426.53
2018-11-05T00:23:29.034Z,99429.55
2018-11-05T00:25:58.011Z,99422.72
2018-11-05T00:28:27.015Z,99417.31
2018-11-05T00:30:55.998Z,99421.17
2018-11-05T00:33:25.058Z,99420.34
2018-11-05T00:35:54.095Z,99421.89
2018-11-05T00:38:23.109Z,99426.59
2018-11-05T00:40:52.103Z,99440.52
2018-11-05T00:43:21.100Z,99449.22
2018-11-05T00:45:50.168Z,99438.09
2018-11-05T00:48:19.087Z,99442.83
2018-11-05T00:50:48.202Z,99438.98
2018-11-05T00:53:17.190Z,99446.62
2018-11-05T00:55:46.274Z,99448.33
2018-11-05T00:58:15.624Z,99437.97
2018-11-05T01:00:44.574Z,99435.36
2018-11-05T01:03:13.562Z,99422.56
2018-11-05T01:05:42.594Z,99424.45
2018-11-05T01:08:11.603Z,99419.61
2018-11-05T01:10:40.618Z,99420.03
2018-11-05T01:13:09.610Z,99416.05
2018-11-05T01:15:38.628Z,99411.78
2018-11-05T01:18:07.599Z,99416.67
2018-11-05T01:20:36.606Z,99422.27
2018-11-05T01:23:05.591Z,99414.73
2018-11-05T01:25:34.570Z,99421.86
2018-11-05T01:28:03.574Z,99420.20
2018-11-05T01:30:32.580Z,99417.25
2018-11-05T01:33:01.594Z,99418.55
2018-11-05T01:35:30.639Z,99403.75
2018-11-05T01:37:59.751Z,99379.47
2018-11-05T01:40:28.741Z,99359.66
2018-11-05T01:42:57.715Z,99357.68
2018-11-05T01:45:26.745Z,99356.84
2018-11-05T01:47:55.851Z,99368.84
2018-11-05T01:50:24.844Z,99370.95
2018-11-05T01:52:53.837Z,99354.97
2018-11-05T01:55:22.823Z,99348.10
2018-11-05T01:57:51.794Z,99355.92
2018-11-05T02:00:20.798Z,99364.84
2018-11-05T02:02:49.802Z,99368.34
2018-11-05T02:05:19.039Z,99386.14
2018-11-05T02:07:48.018Z,99389.09
2018-11-05T02:10:19.075Z,99385.39
2018-11-05T02:12:48.015Z,99381.64
2018-11-05T02:15:17.272Z,99377.78
2018-11-05T02:17:46.839Z,99381.13
2018-11-05T02:20:16.723Z,99361.48
2018-11-05T02:22:45.858Z,99346.89
2018-11-05T02:25:15.074Z,99343.66
2018-11-05T02:27:44.068Z,99328.66
2018-11-05T02:30:15.296Z,99324.85
2018-11-05T02:32:44.573Z,99324.72
2018-11-05T02:35:14.284Z,99317.45
2018-11-05T02:37:43.958Z,99322.39
2018-11-05T02:40:14.338Z,99314.66
2018-11-05T02:42:43.904Z,99318.00
2018-11-05T02:45:14.041Z,99306.73
2018-11-05T02:47:43.046Z,99305.66
2018-11-05T02:50:12.842Z,99316.20
2018-11-05T02:52:42.622Z,99320.95
2018-11-05T02:55:11.630Z,99322.52
2018-11-05T02:57:40.649Z,99330.12
2018-11-05T03:00:12.082Z,99328.55
2018-11-05T03:02:41.370Z,99331.56
2018-11-05T03:05:12.716Z,99332.81
2018-11-05T03:07:41.994Z,99326.09
2018-11-05T03:10:11.755Z,99321.16
2018-11-05T03:12:41.446Z,99308.44
2018-11-05T03:15:12.812Z,99311.19
2018-11-05T03:17:41.811Z,99306.69
2018-11-05T03:20:11.882Z,99298.27
2018-11-05T03:22:41.514Z,99310.62
2018-11-05T03:25:10.586Z,99314.44
2018-11-05T03:27:39.905Z,99309.64
2018-11-05T03:30:14.309Z,99318.63
2018-11-05T03:32:43.435Z,99321.13
2018-11-05T03:35:13.152Z,99313.69
2018-11-05T03:37:42.957Z,99302.41
2018-11-05T03:40:12.939Z,99309.45
2018-11-05T03:42:42.310Z,99299.39
2018-11-05T03:45:12.578Z,99301.58
2018-11-05T03:47:41.545Z,99299.97
2018-11-05T03:50:13.171Z,99304.02
2018-11-05T03:52:42.641Z,99306.16
2018-11-05T03:55:11.974Z,99300.70
2018-11-05T03:57:40.951Z,99310.36
2018-11-05T04:00:11.487Z,99317.02
2018-11-05T04:02:40.674Z,99312.28
2018-11-05T04:05:09.820Z,99311.09
2018-11-05T04:07:39.282Z,99310.94
2018-11-05T04:10:09.183Z,99323.67
2018-11-05T04:12:38.163Z,99316.30
2018-11-05T04:15:07.432Z,99318.64
2018-11-05T04:17:36.434Z,99316.50
2018-11-05T04:20:07.879Z,99305.88
2018-11-05T04:22:36.878Z,99304.67
2018-11-05T04:25:05.887Z,99308.67
2018-11-05T04:27:34.865Z,99302.95
2018-11-05T04:30:04.121Z,99295.47
2018-11-05T04:32:33.123Z,99295.56
2018-11-05T04:35:02.278Z,99288.12
2018-11-05T04:37:31.246Z,99284.91
2018-11-05T04:40:00.238Z,99286.34
2018-11-05T04:42:29.238Z,99292.85
2018-11-05T04:44:58.338Z,99294.48
2018-11-05T04:47:27.344Z,99286.56
2018-11-05T04:49:56.339Z,99288.95
2018-11-05T04:52:25.360Z,99285.90
2018-11-05T04:54:54.463Z,99281.44
2018-11-05T04:57:23.466Z,99292.00
2018-11-05T04:59:52.454Z,99294.65
2018-11-05T05:02:21.554Z,99291.22
2018-11-05T05:04:50.556Z,99296.70
2018-11-05T05:07:19.522Z,99304.23
2018-11-05T05:09:48.514Z,99308.12
2018-11-05T05:12:17.554Z,99302.63
2018-11-05T05:14:46.552Z,99308.77
2018-11-05T05:17:15.574Z,99325.23
2018-11-05T05:19:44.676Z,99334.12
2018-11-05T05:22:13.650Z,99337.19
2018-11-05T05:24:42.655Z,99328.59
2018-11-05T05:27:11.683Z,99323.67
2018-11-05T05:29:40.724Z,99312.59
2018-11-05T05:32:09.882Z,99310.42
2018-11-05T05:34:38.892Z,99306.27
2018-11-05T05:37:07.973Z,99316.14
2018-11-05T05:39:36.971Z,99325.25
2018-11-05T05:42:06.270Z,99328.58
2018-11-05T05:44:35.278Z,99328.36
2018-11-05T05:47:04.258Z,99314.53
2018-11-05T05:49:33.258Z,99308.34
2018-11-05T05:52:02.230Z,99300.95
2018-11-05T05:54:31.363Z,99297.77
2018-11-05T05:57:00.359Z,99304.12
2018-11-05T05:59:29.334Z,99290.92
2018-11-05T06:01:58.351Z,99282.45
2018-11-05T06:04:27.726Z,99290.09
2018-11-05T06:06:56.776Z,99281.45
2018-11-05T06:09:25.750Z,99287.05
2018-11-05T06:11:54.749Z,99292.42
2018-11-05T06:14:23.751Z,99292.37
2018-11-05T06:16:52.730Z,99285.69
2018-11-05T06:19:21.830Z,99280.98
2018-11-05T06:21:50.892Z,99303.95
2018-11-05T06:24:19.818Z,99303.64
2018-11-05T06:26:48.800Z,99304.22
2018-11-05T06:29:17.863Z,99303.16
2018-11-05T06:31:46.909Z,99312.05
2018-11-05T06:34:15.946Z,99315.92
2018-11-05T06:36:44.917Z,99319.23
2018-11-05T06:39:14.282Z,99313.80
2018-11-05T06:41:43.613Z,99308.16
2018-11-05T06:44:12.564Z,99307.45
2018-11-05T06:46:41.512Z,99318.64
2018-11-05T06:49:10.519Z,99309.12
2018-11-05T06:51:39.590Z,99309.95
2018-11-05T06:54:08.587Z,99312.30
2018-11-05T06:56:38.170Z,99302.97
2018-11-05T06:59:07.171Z,99301.57
2018-11-05T07:01:36.171Z,99306.72
2018-11-05T07:04:05.438Z,99310.97
2018-11-05T07:06:34.432Z,99308.13
2018-11-05T07:09:03.464Z,99321.33
2018-11-05T07:11:32.501Z,99317.91
2018-11-05T07:14:01.484Z,99304.08
2018-11-05T07:16:30.450Z,99303.47
2018-11-05T07:18:59.706Z,99304.89
2018-11-05T07:21:28.764Z,99318.59
2018-11-05T07:23:57.866Z,99324.36
2018-11-05T07:26:26.977Z,99308.86
2018-11-05T07:28:55.949Z,99306.02
2018-11-05T07:31:25.299Z,99316.84
2018-11-05T07:33:54.458Z,99335.74
2018-11-05T07:36:23.322Z,99333.95
2018-11-05T07:38:52.327Z,99330.48
2018-11-05T07:41:21.315Z,99335.78
2018-11-05T07:43:50.334Z,99339.33
2018-11-05T07:46:19.316Z,99340.95
2018-11-05T07:48:48.294Z,99338.92
2018-11-05T07:51:17.283Z,99329.83
2018-11-05T07:53:46.293Z,99330.37
2018-11-05T07:56:15.289Z,99330.37
2018-11-05T07:58:44.270Z,99338.27
2018-11-05T08:01:13.244Z,99340.03
2018-11-05T08:03:42.297Z,99342.64
2018-11-05T08:06:11.279Z,99338.23
2018-11-05T08:08:40.366Z,99331.47
2018-11-05T08:11:09.372Z,99328.97
2018-11-05T08:13:38.370Z,99335.64
2018-11-05T08:16:07.408Z,99333.70
2018-11-05T08:18:36.447Z,99321.36
2018-11-05T08:21:05.559Z,99322.34
2018-11-05T08:23:34.563Z,99314.09
2018-11-05T08:26:03.534Z,99318.38
2018-11-05T08:28:32.547Z,99312.09
2018-11-05T08:31:01.691Z,99313.84
2018-11-05T08:33:30.722Z,99314.41
2018-11-05T08:35:59.714Z,99306.13
2018-11-05T08:38:28.715Z,99300.70
2018-11-05T08:40:57.681Z,99296.27
2018-11-05T08:43:26.950Z,99298.59
2018-11-05T08:45:55.962Z,99294.77
2018-11-05T08:48:24.978Z,99303.88
2018-11-05T08:50:54.140Z,99311.70
2018-11-05T08:53:23.065Z,99311.20
2018-11-05T08:55:52.042Z,99313.80
2018-11-05T08:58:21.070Z,99317.39
2018-11-05T09:01:21.938Z,99314.23
2018-11-05T09:03:51.002Z,99315.25
2018-11-05T09:06:19.986Z,99306.48
2018-11-05T09:08:49.000Z,99303.18
2018-11-05T09:11:18.424Z,99314.28
2018-11-05T09:13:47.072Z,99315.30
2018-11-05T09:16:16.157Z,99315.97
2018-11-05T09:18:45.166Z,99306.59
2018-11-05T09:21:14.164Z,99301.02
2018-11-05T09:23:43.167Z,99286.13
2018-11-05T09:26:12.146Z,99279.63
2018-11-05T09:28:41.173Z,99283.24
2018-11-05T09:31:10.167Z,99280.85
2018-11-05T09:33:39.191Z,99282.71
2018-11-05T09:36:08.257Z,99293.91
2018-11-05T09:38:37.294Z,99295.53
2018-11-05T09:41:07.522Z,99299.73
2018-11-05T09:43:36.695Z,99300.98
2018-11-05T09:46:05.943Z,99287.03
2018-11-05T09:48:34.922Z,99283.07
2018-11-05T09:51:04.056Z,99295.88
2018-11-05T09:53:33.051Z,99293.80
2018-11-05T09:56:02.023Z,99288.52
2018-11-05T09:58:31.037Z,99294.55
2018-11-05T10:01:00.007Z,99291.82
2018-11-05T10:03:29.300Z,99283.63
2018-11-05T10:05:58.054Z,99301.33
2018-11-05T10:08:27.052Z,99306.61
2018-11-05T10:10:56.048Z,99296.88
2018-11-05T10:13:25.034Z,99293.53
2018-11-05T10:15:54.011Z,99292.02
2018-11-05T10:18:23.023Z,99275.80
2018-11-05T10:20:52.095Z,99295.14
2018-11-05T10:23:21.101Z,99292.61
2018-11-05T10:25:50.082Z,99289.05
2018-11-05T10:28:19.102Z,99285.83
2018-11-05T10:30:48.155Z,99276.37
2018-11-05T10:33:17.177Z,99256.45
2018-11-05T10:35:51.582Z,99267.67
2018-11-05T10:38:20.771Z,99259.35
2018-11-05T10:40:49.758Z,99257.62
2018-11-05T10:43:18.744Z,99258.21
2018-11-05T10:45:47.747Z,99264.83
2018-11-05T10:48:16.724Z,99261.21
2018-11-05T10:50:45.789Z,99255.98
2018-11-05T10:53:14.731Z,99257.83
2018-11-05T10:55:43.734Z,99253.52
2018-11-05T10:58:12.839Z,99260.38
2018-11-05T11:00:47.077Z,99267.34
2018-11-05T11:03:18.747Z,99271.48
2018-11-05T11:05:47.767Z,99263.95
2018-11-05T11:08:16.766Z,99266.95
2018-11-05T11:10:45.794Z,99266.64
2018-11-05T11:13:14.795Z,99258.17
2018-11-05T11:15:43.802Z,99248.72
2018-11-05T11:18:12.819Z,99244.14
2018-11-05T11:20:41.807Z,99245.10
2018-11-05T11:23:10.818Z,99247.10
2018-11-05T11:25:39.803Z,99244.07
2018-11-05T11:28:08.860Z,99241.00
2018-11-05T11:30:37.803Z,99232.25
2018-11-05T11:33:06.783Z,99226.62
2018-11-05T11:35:35.801Z,99222.38
2018-11-05T11:38:05.142Z,99215.24
2018-11-05T11:40:34.182Z,99208.89
2018-11-05T11:43:03.174Z,99206.70
2018-11-05T11:45:32.283Z,99201.16
2018-11-05T11:48:01.295Z,99203.61
2018-11-05T11:50:30.279Z,99194.64
2018-11-05T11:52:59.339Z,99184.66
2018-11-05T11:55:28.272Z,99186.84
2018-11-05T11:57:57.295Z,99193.66
2018-11-05T12:00:27.142Z,99181.70
2018-11-05T12:02:56.126Z,99182.14
2018-11-05T12:05:25.359Z,99184.95
2018-11-05T12:07:54.263Z,99181.52
2018-11-05T12:10:24.309Z,99179.27
2018-11-05T12:12:53.322Z,99174.66
2018-11-05T12:15:22.847Z,99168.14
2018-11-05T12:17:52.699Z,99160.98
2018-11-05T12:20:22.895Z,99150.31
2018-11-05T12:22:52.477Z,99152.30
2018-11-05T12:25:21.482Z,99143.83
2018-11-05T12:27:50.489Z,99139.86
2018-11-05T12:30:20.901Z,99143.61
2018-11-05T12:32:50.714Z,99147.64
2018-11-05T12:35:19.698Z,99142.39
2018-11-05T12:37:49.737Z,99144.09
2018-11-05T12:40:19.619Z,99150.20
2018-11-05T12:42:49.559Z,99143.16
2018-11-05T12:45:18.626Z,99148.40
2018-11-05T12:47:47.675Z,99146.77
2018-11-05T12:50:22.909Z,99147.39
2018-11-05T12:52:53.115Z,99148.70
2018-11-05T12:55:22.139Z,99150.36
2018-11-05T12:57:51.140Z,99152.83
2018-11-05T13:00:21.715Z,99145.27
2018-11-05T13:02:53.091Z,99138.09
2018-11-05T13:05:22.765Z,99131.84
2018-11-05T13:07:51.746Z,99134.81
2018-11-05T13:10:20.830Z,99124.47
2018-11-05T13:12:49.963Z,99130.03
2018-11-05T13:15:19.053Z,99132.81
2018-11-05T13:17:47.957Z,99127.58
2018-11-05T13:20:18.963Z,99122.67
2018-11-05T13:22:48.184Z,99122.84
2018-11-05T13:25:17.095Z,99115.00
2018-11-05T13:27:47.226Z,99122.83
2018-11-05T13:30:16.498Z,99121.35
2018-11-05T13:32:45.836Z,99117.41
2018-11-05T13:35:16.043Z,99122.83
2018-11-05T13:37:45.691Z,99113.67
2018-11-05T13:40:15.547Z,99119.89
2018-11-05T13:42:44.904Z,99107.11
2018-11-05T13:45:14.504Z,99110.22
2018-11-05T13:47:44.273Z,99112.05
2018-11-05T13:50:13.275Z,99107.77
2018-11-05T13:52:42.204Z,99105.81
2018-11-05T13:55:14.423Z,99113.68
2018-11-05T13:57:44.797Z,99110.73
2018-11-05T14:00:14.864Z,99109.77
2018-11-05T14:02:43.883Z,99114.02
2018-11-05T14:05:13.163Z,99115.14
2018-11-05T14:07:42.232Z,99114.33
2018-11-05T14:10:16.802Z,99108.27
2018-11-05T14:12:46.415Z,99120.55
2018-11-05T14:15:15.355Z,99123.17
2018-11-05T14:17:44.906Z,99121.38
2018-11-05T14:20:14.826Z,99123.83
2018-11-05T14:22:43.947Z,99131.17
2018-11-05T14:25:16.022Z,99125.77
2018-11-05T14:27:46.331Z,99121.47
2018-11-05T14:30:15.402Z,99130.56
2018-11-05T14:32:46.759Z,99126.75
2018-11-05T14:35:15.838Z,99123.02
2018-11-05T14:37:45.154Z,99137.39
2018-11-05T14:40:15.465Z,99140.66
2018-11-05T14:42:44.485Z,99144.95
2018-11-05T14:45:14.703Z,99149.30
2018-11-05T14:47:44.627Z,99144.70
2018-11-05T14:50:15.106Z,99141.13
2018-11-05T14:52:44.110Z,99144.59
2018-11-05T14:55:14.877Z,99141.63
2018-11-05T14:57:44.999Z,99129.68
2018-11-05T15:00:16.033Z,99132.31
2018-11-05T15:02:45.712Z,99128.39
2018-11-05T15:05:15.140Z,99125.41
2018-11-05T15:07:45.137Z,99121.83
2018-11-05T15:10:16.253Z,99120.18
2018-11-05T15:12:45.387Z,99120.48
2018-11-05T15:15:14.910Z,99127.03
2018-11-05T15:17:44.411Z,99137.92
2018-11-05T15:20:17.917Z,99144.09
2018-11-05T15:22:46.708Z,99148.37
2018-11-05T15:25:16.022Z,99161.11
2018-11-05T15:27:45.024Z,99158.80
2018-11-05T15:30:16.077Z,99160.70
2018-11-05T15:32:45.455Z,99153.11
2018-11-05T15:35:14.726Z,99153.39
2018-11-05T15:37:44.162Z,99150.97
2018-11-05T15:40:16.203Z,99151.38
2018-11-05T15:42:45.214Z,99148.77
2018-11-05T15:45:15.530Z,99138.81
2018-11-05T15:47:44.572Z,99131.70
2018-11-05T15:50:14.952Z,99124.10
2018-11-05T15:52:44.529Z,99142.05
2018-11-05T15:55:13.359Z,99144.44
2018-11-05T15:57:42.342Z,99135.36
2018-11-05T16:00:16.158Z,99140.52
2018-11-05T16:02:46.293Z,99136.56
2018-11-05T16:05:15.366Z,99127.70
2018-11-05T16:07:44.433Z,99132.77
2018-11-05T16:10:13.485Z,99138.03
2018-11-05T16:12:42.519Z,99141.61
2018-11-05T16:15:12.177Z,99148.13
2018-11-05T16:17:47.835Z,99140.95
2018-11-05T16:20:18.134Z,99141.44
2018-11-05T16:22:48.068Z,99155.69
2018-11-05T16:25:17.087Z,99146.59
2018-11-05T16:27:46.125Z,99146.11
2018-11-05T16:30:16.706Z,99148.83
2018-11-05T16:32:46.228Z,99148.08
2018-11-05T16:35:15.272Z,99154.88
2018-11-05T16:37:44.238Z,99159.68
2018-11-05T16:40:14.583Z,99156.88
2018-11-05T16:42:44.220Z,99160.52
2018-11-05T16:45:13.219Z,99157.69
2018-11-05T16:47:42.631Z,99163.92
2018-11-05T16:50:15.194Z,99173.55
2018-11-05T16:52:44.297Z,99172.06
2018-11-05T16:55:14.178Z,99167.77
2018-11-05T16:57:43.650Z,99178.87
2018-11-05T17:00:13.231Z,99177.58
2018-11-05T17:02:42.981Z,99179.47
2018-11-05T17:05:11.895Z,99186.73
2018-11-05T17:07:41.011Z,99184.05
2018-11-05T17:10:11.215Z,99193.58
2018-11-05T17:12:40.507Z,99195.28
2018-11-05T17:15:10.819Z,99193.77
2018-11-05T17:17:40.306Z,99190.48
2018-11-05T17:20:11.770Z,99197.81
2018-11-05T17:22:41.511Z,99193.09
2018-11-05T17:25:11.226Z,99197.45
2018-11-05T17:27:40.425Z,99200.66
2018-11-05T17:30:12.829Z,99196.08
2018-11-05T17:32:42.532Z,99184.33
2018-11-05T17:35:11.806Z,99182.92
2018-11-05T17:37:40.899Z,99185.63
2018-11-05T17:40:12.169Z,99175.97
2018-11-05T17:42:41.462Z,99178.48
2018-11-05T17:45:11.996Z,99175.55
2018-11-05T17:47:41.027Z,99185.34
2018-11-05T17:50:12.200Z,99189.84
2018-11-05T17:52:41.414Z,99193.14
2018-11-05T17:55:11.289Z,99191.16
2018-11-05T17:57:41.127Z,99189.61
2018-11-05T18:00:13.851Z,99193.74
2018-11-05T18:02:42.862Z,99193.27
2018-11-05T18:05:11.866Z,99185.52
2018-11-05T18:07:40.889Z,99181.41
2018-11-05T18:10:09.886Z,99179.49
2018-11-05T18:12:39.007Z,99175.15
2018-11-05T18:15:09.326Z,99173.05
2018-11-05T18:17:38.778Z,99166.89
2018-11-05T18:20:08.987Z,99170.70
2018-11-05T18:22:37.984Z,99165.84
2018-11-05T18:25:08.882Z,99167.14
2018-11-05T18:27:37.954Z,99166.56
2018-11-05T18:30:07.739Z,99169.04
2018-11-05T18:32:36.759Z,99168.21
2018-11-05T18:35:07.435Z,99167.14
2018-11-05T18:37:36.507Z,99163.59
2018-11-05T18:40:08.022Z,99170.21
2018-11-05T18:42:37.087Z,99168.19
2018-11-05T18:45:07.033Z,99180.94
2018-11-05T18:47:36.189Z,99185.28
2018-11-05T18:50:07.547Z,99191.18
2018-11-05T18:52:37.674Z,99196.84
2018-11-05T18:55:08.700Z,99196.70
2018-11-05T18:57:38.241Z,99200.59
2018-11-05T19:00:20.570Z,99206.63
2018-11-05T19:02:50.262Z,99203.67
2018-11-05T19:05:19.930Z,99208.73
2018-11-05T19:07:49.143Z,99208.28
2018-11-05T19:10:18.125Z,99207.43
2018-11-05T19:12:47.647Z,99203.20
2018-11-05T19:15:16.904Z,99202.39
2018-11-05T19:17:46.554Z,99206.85
2018-11-05T19:20:15.708Z,99201.20
2018-11-05T19:22:45.161Z,99206.41
2018-11-05T19:25:14.738Z,99208.05
2018-11-05T19:27:43.865Z,99202.48
2018-11-05T19:30:16.060Z,99194.72
2018-11-05T19:32:45.435Z,99189.18
2018-11-05T19:35:14.413Z,99194.84
2018-11-05T19:37:43.607Z,99186.35
2018-11-05T19:40:13.596Z,99184.58
2018-11-05T19:42:43.725Z,99182.83
2018-11-05T19:45:14.483Z,99181.05
2018-11-05T19:47:43.594Z,99186.37
2018-11-05T19:50:14.517Z,99190.02
2018-11-05T19:52:44.445Z,99195.65
2018-11-05T19:55:14.442Z,99193.19
2018-11-05T19:57:44.210Z,99204.25
2018-11-05T20:00:22.526Z,99204.02
2018-11-05T20:02:51.663Z,99204.96
2018-11-05T20:05:20.660Z,99216.37
2018-11-05T20:07:50.489Z,99223.09
2018-11-05T20:10:19.579Z,99224.58
2018-11-05T20:12:48.622Z,99222.69
2018-11-05T20:15:17.717Z,99226.94
2018-11-05T20:17:47.526Z,99225.05
2018-11-05T20:20:17.796Z,99224.34
2018-11-05T20:22:46.858Z,99219.50
2018-11-05T20:25:15.859Z,99218.91
2018-11-05T20:27:45.084Z,99216.31
2018-11-05T20:30:30.490Z,99216.54
2018-11-05T20:33:00.099Z,99213.48
2018-11-05T20:35:28.671Z,99212.42
2018-11-05T20:37:57.674Z,99217.47
2018-11-05T20:40:26.755Z,99217.33
2018-11-05T20:42:55.822Z,99212.59
2018-11-05T20:45:25.080Z,99229.88
2018-11-05T20:47:54.215Z,99226.32
2018-11-05T20:50:23.170Z,99229.38
2018-11-05T20:52:52.207Z,99221.14
2018-11-05T20:55:21.170Z,99207.14
2018-11-05T20:57:50.918Z,99225.02
2018-11-05T21:00:21.058Z,99230.05
2018-11-05T21:02:50.095Z,99231.86
2018-11-05T21:05:19.108Z,99237.87
2018-11-05T21:07:48.126Z,99236.34
2018-11-05T21:10:17.099Z,99243.27
2018-11-05T21:12:46.119Z,99243.81
2018-11-05T21:15:17.257Z,99252.80
2018-11-05T21:17:47.050Z,99254.55
2018-11-05T21:20:16.154Z,99250.67
2018-11-05T21:22:45.610Z,99248.89
2018-11-05T21:25:21.032Z,99243.39
2018-11-05T21:27:50.020Z,99249.72
2018-11-05T21:30:20.258Z,99253.47
2018-11-05T21:32:49.305Z,99254.17
2018-11-05T21:35:19.367Z,99253.83
2018-11-05T21:37:48.372Z,99257.45
2018-11-05T21:40:18.178Z,99254.06
2018-11-05T21:42:47.182Z,99254.70
2018-11-05T21:45:16.731Z,99263.44
2018-11-05T21:47:46.209Z,99258.59
2018-11-05T21:50:16.511Z,99256.69
2018-11-05T21:52:45.835Z,99242.91
2018-11-05T21:55:14.811Z,99232.54
2018-11-05T21:57:45.290Z,99234.86
2018-11-05T22:00:16.797Z,99235.75
2018-11-05T22:02:51.030Z,99235.10
2018-11-05T22:05:19.992Z,99244.39
2018-11-05T22:07:49.169Z,99251.19
2018-11-05T22:10:18.130Z,99252.60
2018-11-05T22:12:47.723Z,99257.31
2018-11-05T22:15:16.691Z,99257.37
2018-11-05T22:17:45.728Z,99250.73
2018-11-05T22:20:14.770Z,99248.14
2018-11-05T22:22:43.841Z,99248.63
2018-11-05T22:25:12.928Z,99244.03
2018-11-05T22:27:42.078Z,99248.77
2018-11-05T22:30:11.797Z,99252.58
2018-11-05T22:32:41.470Z,99254.89
2018-11-05T22:35:10.470Z,99245.81
2018-11-05T22:37:39.466Z,99250.08
2018-11-05T22:40:10.918Z,99255.97
2018-11-05T22:42:40.719Z,99259.69
2018-11-05T22:45:10.614Z,99262.39
2018-11-05T22:47:39.612Z,99258.23
2018-11-05T22:50:08.840Z,99243.33
2018-11-05T22:52:38.220Z,99223.30
2018-11-05T22:55:07.370Z,99225.23
2018-11-05T22:57:36.402Z,99223.02
2018-11-05T23:00:08.690Z,99211.47
2018-11-05T23:02:40.520Z,99209.09
2018-11-05T23:05:09.482Z,99207.90
2018-11-05T23:07:38.474Z,99210.02
2018-11-05T23:10:07.456Z,99214.28
2018-11-05T23:12:36.425Z,99213.30
2018-11-05T23:15:05.669Z,99219.67
2018-11-05T23:17:34.655Z,99224.28
2018-11-05T23:20:03.691Z,99226.59
2018-11-05T23:22:32.691Z,99223.75
2018-11-05T23:25:01.655Z,99224.42
2018-11-05T23:27:30.651Z,99222.44
2018-11-05T23:29:59.650Z,99225.16
2018-11-05T23:32:28.635Z,99222.66
2018-11-05T23:34:57.653Z,99223.95
2018-11-05T23:37:26.638Z,99220.74
2018-11-05T23:39:55.645Z,99215.14
2018-11-05T23:42:24.616Z,99224.41
2018-11-05T23:44:53.809Z,99217.95
2018-11-05T23:47:27.292Z,99213.73
2018-11-05T23:49:56.628Z,99202.29
2018-11-05T23:52:26.050Z,99204.80
2018-11-05T23:54:55.042Z,99200.80
2018-11-05T23:57:24.115Z,99214.30
2018-11-05T23:59:53.102Z,99222.05
